Hot Springs Natl Park, Arkansas
Current Conditions -  °F | °C
As of 1:53 AM on Saturday 29 Nov 2014 (Local Time) from KHOT Reporting Station
Overcast Overcast  
Wind Chill: 53°   Ceiling: 1300
Heat Index: 53°   Visibility: 10mi
Dew Point: 47°   Wind: 10mph
Humidity: 80%   Direction: 210°SSW
Pressure: 30.02"   Gusts: NA
Location:  34.5°N, 93.05°W
Report Text: KHOT 290753Z AUTO 21009KT 10SM OVC013 12/08 A3002 RMK AO2 SLP163 T01170083
Loading
Personal Weather Stations






























Interactive Weather Map New forecast layout! Learn more

10-Day Weather Forecast

Advertisements
Track Severe Weather on mobile